<?xml version='1.0' encoding='UTF-8'?>
<gpx version="1.1" creator="https://www.komoot.de" xmlns="http://www.topografix.com/GPX/1/1" xmlns:xsi="http://www.w3.org/2001/XMLSchema-instance" xsi:schemaLocation="http://www.topografix.com/GPX/1/1 http://www.topografix.com/GPX/1/1/gpx.xsd">
  <metadata>
    <name>Tappa 5 - dall' Eremo di San Pietro in Vigneto a Valfabbrica</name>
    <author>
      <link href="https://www.komoot.de">
        <text>komoot</text>
        <type>text/html</type>
      </link>
    </author>
  </metadata>
  <trk>
    <name>Tappa 5 - dall' Eremo di San Pietro in Vigneto a Valfabbrica</name>
    <trkseg>
      <trkpt lat="43.235700" lon="12.585616">
        <ele>439.548692</ele>
        <time>2026-04-23T08:42:12.744Z</time>
      </trkpt>
      <trkpt lat="43.235753" lon="12.585728">
        <ele>439.548692</ele>
        <time>2026-04-23T08:42:23.316Z</time>
      </trkpt>
      <trkpt lat="43.235892" lon="12.585804">
        <ele>439.548692</ele>
        <time>2026-04-23T08:42:39.973Z</time>
      </trkpt>
      <trkpt lat="43.236143" lon="12.585730">
        <ele>439.548692</ele>
        <time>2026-04-23T08:43:09.382Z</time>
      </trkpt>
      <trkpt lat="43.236320" lon="12.585567">
        <ele>439.548692</ele>
        <time>2026-04-23T08:43:34.587Z</time>
      </trkpt>
      <trkpt lat="43.236419" lon="12.585546">
        <ele>439.548692</ele>
        <time>2026-04-23T08:43:46.791Z</time>
      </trkpt>
      <trkpt lat="43.236466" lon="12.585600">
        <ele>439.548692</ele>
        <time>2026-04-23T08:43:54.230Z</time>
      </trkpt>
      <trkpt lat="43.236348" lon="12.585976">
        <ele>436.225938</ele>
        <time>2026-04-23T08:44:31.240Z</time>
      </trkpt>
      <trkpt lat="43.236323" lon="12.586186">
        <ele>434.367714</ele>
        <time>2026-04-23T08:44:50.709Z</time>
      </trkpt>
      <trkpt lat="43.236331" lon="12.587120">
        <ele>426.210653</ele>
        <time>2026-04-23T08:46:17.376Z</time>
      </trkpt>
      <trkpt lat="43.236285" lon="12.587199">
        <ele>425.327479</ele>
        <time>2026-04-23T08:46:26.906Z</time>
      </trkpt>
      <trkpt lat="43.236191" lon="12.587248">
        <ele>424.122193</ele>
        <time>2026-04-23T08:46:39.867Z</time>
      </trkpt>
      <trkpt lat="43.236114" lon="12.587252">
        <ele>423.198541</ele>
        <time>2026-04-23T08:46:49.900Z</time>
      </trkpt>
      <trkpt lat="43.235849" lon="12.587143">
        <ele>419.882457</ele>
        <time>2026-04-23T08:47:25.794Z</time>
      </trkpt>
      <trkpt lat="43.235703" lon="12.587114">
        <ele>418.114141</ele>
        <time>2026-04-23T08:47:44.740Z</time>
      </trkpt>
      <trkpt lat="43.235608" lon="12.587152">
        <ele>416.729691</ele>
        <time>2026-04-23T08:47:57.480Z</time>
      </trkpt>
      <trkpt lat="43.235488" lon="12.587220">
        <ele>414.882485</ele>
        <time>2026-04-23T08:48:14.237Z</time>
      </trkpt>
      <trkpt lat="43.235363" lon="12.587371">
        <ele>412.513220</ele>
        <time>2026-04-23T08:48:35.438Z</time>
      </trkpt>
      <trkpt lat="43.235229" lon="12.587699">
        <ele>408.615032</ele>
        <time>2026-04-23T08:49:10.185Z</time>
      </trkpt>
      <trkpt lat="43.235088" lon="12.587785">
        <ele>406.419654</ele>
        <time>2026-04-23T08:49:29.741Z</time>
      </trkpt>
      <trkpt lat="43.234636" lon="12.587768">
        <ele>399.985946</ele>
        <time>2026-04-23T08:50:27.596Z</time>
      </trkpt>
      <trkpt lat="43.234213" lon="12.587516">
        <ele>393.424810</ele>
        <time>2026-04-23T08:51:26.906Z</time>
      </trkpt>
      <trkpt lat="43.234077" lon="12.587488">
        <ele>391.472871</ele>
        <time>2026-04-23T08:51:44.533Z</time>
      </trkpt>
      <trkpt lat="43.233540" lon="12.587499">
        <ele>383.870714</ele>
        <time>2026-04-23T08:52:52.638Z</time>
      </trkpt>
      <trkpt lat="43.233431" lon="12.587461">
        <ele>382.278812</ele>
        <time>2026-04-23T08:53:06.836Z</time>
      </trkpt>
      <trkpt lat="43.233394" lon="12.587295">
        <ele>380.488531</ele>
        <time>2026-04-23T08:53:22.864Z</time>
      </trkpt>
      <trkpt lat="43.233377" lon="12.586673">
        <ele>374.069330</ele>
        <time>2026-04-23T08:54:20.241Z</time>
      </trkpt>
      <trkpt lat="43.233354" lon="12.586480">
        <ele>372.052469</ele>
        <time>2026-04-23T08:54:38.310Z</time>
      </trkpt>
      <trkpt lat="43.233165" lon="12.586165">
        <ele>367.844052</ele>
        <time>2026-04-23T08:55:15.921Z</time>
      </trkpt>
      <trkpt lat="43.233055" lon="12.586090">
        <ele>366.102688</ele>
        <time>2026-04-23T08:55:31.577Z</time>
      </trkpt>
      <trkpt lat="43.233014" lon="12.586135">
        <ele>365.357115</ele>
        <time>2026-04-23T08:55:38.235Z</time>
      </trkpt>
      <trkpt lat="43.233084" lon="12.586491">
        <ele>361.541646</ele>
        <time>2026-04-23T08:56:12.569Z</time>
      </trkpt>
      <trkpt lat="43.232999" lon="12.586777">
        <ele>358.345539</ele>
        <time>2026-04-23T08:56:41.767Z</time>
      </trkpt>
      <trkpt lat="43.232830" lon="12.587058">
        <ele>354.575238</ele>
        <time>2026-04-23T08:57:16.365Z</time>
      </trkpt>
      <trkpt lat="43.232571" lon="12.587238">
        <ele>350.452182</ele>
        <time>2026-04-23T08:57:54.415Z</time>
      </trkpt>
      <trkpt lat="43.232340" lon="12.587357">
        <ele>346.947988</ele>
        <time>2026-04-23T08:58:26.816Z</time>
      </trkpt>
      <trkpt lat="43.231915" lon="12.587360">
        <ele>341.078595</ele>
        <time>2026-04-23T08:59:21.884Z</time>
      </trkpt>
      <trkpt lat="43.231767" lon="12.587478">
        <ele>339.492246</ele>
        <time>2026-04-23T08:59:43.830Z</time>
      </trkpt>
      <trkpt lat="43.231391" lon="12.588224">
        <ele>333.366768</ele>
        <time>2026-04-23T09:01:05.738Z</time>
      </trkpt>
      <trkpt lat="43.231065" lon="12.588775">
        <ele>328.573692</ele>
        <time>2026-04-23T09:02:05.549Z</time>
      </trkpt>
      <trkpt lat="43.231034" lon="12.588709">
        <ele>328.043420</ele>
        <time>2026-04-23T09:02:12.051Z</time>
      </trkpt>
      <trkpt lat="43.231073" lon="12.588488">
        <ele>326.507892</ele>
        <time>2026-04-23T09:02:30.370Z</time>
      </trkpt>
      <trkpt lat="43.231149" lon="12.588240">
        <ele>324.712549</ele>
        <time>2026-04-23T09:02:51.793Z</time>
      </trkpt>
      <trkpt lat="43.231291" lon="12.587467">
        <ele>323.150184</ele>
        <time>2026-04-23T09:03:53.137Z</time>
      </trkpt>
      <trkpt lat="43.231389" lon="12.587180">
        <ele>322.529003</ele>
        <time>2026-04-23T09:04:17.033Z</time>
      </trkpt>
      <trkpt lat="43.231457" lon="12.586855">
        <ele>321.866315</ele>
        <time>2026-04-23T09:04:42.493Z</time>
      </trkpt>
      <trkpt lat="43.231575" lon="12.586540">
        <ele>321.172151</ele>
        <time>2026-04-23T09:05:09.266Z</time>
      </trkpt>
      <trkpt lat="43.231712" lon="12.586327">
        <ele>320.615320</ele>
        <time>2026-04-23T09:05:30.553Z</time>
      </trkpt>
      <trkpt lat="43.231758" lon="12.586111">
        <ele>320.174285</ele>
        <time>2026-04-23T09:05:47.373Z</time>
      </trkpt>
      <trkpt lat="43.231699" lon="12.585813">
        <ele>319.981825</ele>
        <time>2026-04-23T09:06:10.343Z</time>
      </trkpt>
      <trkpt lat="43.231720" lon="12.585721">
        <ele>320.041162</ele>
        <time>2026-04-23T09:06:17.386Z</time>
      </trkpt>
      <trkpt lat="43.231665" lon="12.585596">
        <ele>320.131038</ele>
        <time>2026-04-23T09:06:28.242Z</time>
      </trkpt>
      <trkpt lat="43.231473" lon="12.585373">
        <ele>320.343509</ele>
        <time>2026-04-23T09:06:53.511Z</time>
      </trkpt>
      <trkpt lat="43.231450" lon="12.585041">
        <ele>320.548770</ele>
        <time>2026-04-23T09:07:17.889Z</time>
      </trkpt>
      <trkpt lat="43.231483" lon="12.584838">
        <ele>320.676784</ele>
        <time>2026-04-23T09:07:33.091Z</time>
      </trkpt>
      <trkpt lat="43.231651" lon="12.584441">
        <ele>320.959353</ele>
        <time>2026-04-23T09:08:06.755Z</time>
      </trkpt>
      <trkpt lat="43.231809" lon="12.584279">
        <ele>321.125954</ele>
        <time>2026-04-23T09:08:27.023Z</time>
      </trkpt>
      <trkpt lat="43.231872" lon="12.584089">
        <ele>321.254435</ele>
        <time>2026-04-23T09:08:43.546Z</time>
      </trkpt>
      <trkpt lat="43.231984" lon="12.583926">
        <ele>321.392333</ele>
        <time>2026-04-23T09:09:02.172Z</time>
      </trkpt>
      <trkpt lat="43.232185" lon="12.583289">
        <ele>323.621143</ele>
        <time>2026-04-23T09:09:59.848Z</time>
      </trkpt>
      <trkpt lat="43.232202" lon="12.583102">
        <ele>324.238230</ele>
        <time>2026-04-23T09:10:15.783Z</time>
      </trkpt>
      <trkpt lat="43.232175" lon="12.583015">
        <ele>324.547883</ele>
        <time>2026-04-23T09:10:23.940Z</time>
      </trkpt>
      <trkpt lat="43.232064" lon="12.582988">
        <ele>325.054535</ele>
        <time>2026-04-23T09:10:37.017Z</time>
      </trkpt>
      <trkpt lat="43.231965" lon="12.582904">
        <ele>325.577636</ele>
        <time>2026-04-23T09:10:50.576Z</time>
      </trkpt>
      <trkpt lat="43.231881" lon="12.582871">
        <ele>325.970326</ele>
        <time>2026-04-23T09:11:01.085Z</time>
      </trkpt>
      <trkpt lat="43.231711" lon="12.583300">
        <ele>327.569449</ele>
        <time>2026-04-23T09:11:43.341Z</time>
      </trkpt>
      <trkpt lat="43.231571" lon="12.583472">
        <ele>328.413923</ele>
        <time>2026-04-23T09:12:06.145Z</time>
      </trkpt>
      <trkpt lat="43.231476" lon="12.583643">
        <ele>329.118087</ele>
        <time>2026-04-23T09:12:25.248Z</time>
      </trkpt>
      <trkpt lat="43.231215" lon="12.583885">
        <ele>331.121835</ele>
        <time>2026-04-23T09:13:03.762Z</time>
      </trkpt>
      <trkpt lat="43.231086" lon="12.584083">
        <ele>332.480048</ele>
        <time>2026-04-23T09:13:26.261Z</time>
      </trkpt>
      <trkpt lat="43.231009" lon="12.584259">
        <ele>333.529801</ele>
        <time>2026-04-23T09:13:43.572Z</time>
      </trkpt>
      <trkpt lat="43.230826" lon="12.584363">
        <ele>334.919884</ele>
        <time>2026-04-23T09:14:06.758Z</time>
      </trkpt>
      <trkpt lat="43.230668" lon="12.584510">
        <ele>336.259527</ele>
        <time>2026-04-23T09:14:28.875Z</time>
      </trkpt>
      <trkpt lat="43.230487" lon="12.584587">
        <ele>337.589448</ele>
        <time>2026-04-23T09:14:51.122Z</time>
      </trkpt>
      <trkpt lat="43.230198" lon="12.585184">
        <ele>341.254594</ele>
        <time>2026-04-23T09:15:56.382Z</time>
      </trkpt>
      <trkpt lat="43.230093" lon="12.585542">
        <ele>343.799103</ele>
        <time>2026-04-23T09:16:34.086Z</time>
      </trkpt>
      <trkpt lat="43.229984" lon="12.585671">
        <ele>345.325076</ele>
        <time>2026-04-23T09:16:54.175Z</time>
      </trkpt>
      <trkpt lat="43.229921" lon="12.585642">
        <ele>346.029591</ele>
        <time>2026-04-23T09:17:03.798Z</time>
      </trkpt>
      <trkpt lat="43.229933" lon="12.585135">
        <ele>349.948225</ele>
        <time>2026-04-23T09:17:58.677Z</time>
      </trkpt>
      <trkpt lat="43.229906" lon="12.584840">
        <ele>352.245005</ele>
        <time>2026-04-23T09:18:32.050Z</time>
      </trkpt>
      <trkpt lat="43.229813" lon="12.584671">
        <ele>353.881045</ele>
        <time>2026-04-23T09:18:56.279Z</time>
      </trkpt>
      <trkpt lat="43.229421" lon="12.584470">
        <ele>358.317744</ele>
        <time>2026-04-23T09:20:00.123Z</time>
      </trkpt>
      <trkpt lat="43.228777" lon="12.584659">
        <ele>364.751822</ele>
        <time>2026-04-23T09:21:28.936Z</time>
      </trkpt>
      <trkpt lat="43.228407" lon="12.584677">
        <ele>368.154926</ele>
        <time>2026-04-23T09:22:15.692Z</time>
      </trkpt>
      <trkpt lat="43.228260" lon="12.584732">
        <ele>369.555433</ele>
        <time>2026-04-23T09:22:35.028Z</time>
      </trkpt>
      <trkpt lat="43.228139" lon="12.584669">
        <ele>370.744987</ele>
        <time>2026-04-23T09:22:51.691Z</time>
      </trkpt>
      <trkpt lat="43.228115" lon="12.583986">
        <ele>375.324661</ele>
        <time>2026-04-23T09:23:55.881Z</time>
      </trkpt>
      <trkpt lat="43.228142" lon="12.583679">
        <ele>377.395702</ele>
        <time>2026-04-23T09:24:25.410Z</time>
      </trkpt>
      <trkpt lat="43.228249" lon="12.583406">
        <ele>378.615059</ele>
        <time>2026-04-23T09:24:55.945Z</time>
      </trkpt>
      <trkpt lat="43.228270" lon="12.583115">
        <ele>379.619889</ele>
        <time>2026-04-23T09:25:25.394Z</time>
      </trkpt>
      <trkpt lat="43.228255" lon="12.583089">
        <ele>379.733846</ele>
        <time>2026-04-23T09:25:28.671Z</time>
      </trkpt>
      <trkpt lat="43.228186" lon="12.582968">
        <ele>380.261824</ele>
        <time>2026-04-23T09:25:44.048Z</time>
      </trkpt>
      <trkpt lat="43.228062" lon="12.582607">
        <ele>381.633228</ele>
        <time>2026-04-23T09:26:22.906Z</time>
      </trkpt>
      <trkpt lat="43.227882" lon="12.582425">
        <ele>382.687605</ele>
        <time>2026-04-23T09:26:51.423Z</time>
      </trkpt>
      <trkpt lat="43.227764" lon="12.582216">
        <ele>383.596147</ele>
        <time>2026-04-23T09:27:14.353Z</time>
      </trkpt>
      <trkpt lat="43.227607" lon="12.582066">
        <ele>384.498301</ele>
        <time>2026-04-23T09:27:35.171Z</time>
      </trkpt>
      <trkpt lat="43.227404" lon="12.581938">
        <ele>385.551852</ele>
        <time>2026-04-23T09:27:57.736Z</time>
      </trkpt>
      <trkpt lat="43.227154" lon="12.581884">
        <ele>385.789209</ele>
        <time>2026-04-23T09:28:24.172Z</time>
      </trkpt>
      <trkpt lat="43.226967" lon="12.581963">
        <ele>385.109817</ele>
        <time>2026-04-23T09:28:45.143Z</time>
      </trkpt>
      <trkpt lat="43.226764" lon="12.582092">
        <ele>384.333039</ele>
        <time>2026-04-23T09:29:10.112Z</time>
      </trkpt>
      <trkpt lat="43.226514" lon="12.582189">
        <ele>383.430932</ele>
        <time>2026-04-23T09:29:40.069Z</time>
      </trkpt>
      <trkpt lat="43.226333" lon="12.582141">
        <ele>382.790815</ele>
        <time>2026-04-23T09:30:01.693Z</time>
      </trkpt>
      <trkpt lat="43.226138" lon="12.582178">
        <ele>382.107271</ele>
        <time>2026-04-23T09:30:24.904Z</time>
      </trkpt>
      <trkpt lat="43.225576" lon="12.582328">
        <ele>380.119261</ele>
        <time>2026-04-23T09:31:31.192Z</time>
      </trkpt>
      <trkpt lat="43.225372" lon="12.582431">
        <ele>379.772274</ele>
        <time>2026-04-23T09:31:55.034Z</time>
      </trkpt>
      <trkpt lat="43.224864" lon="12.582521">
        <ele>379.234101</ele>
        <time>2026-04-23T09:32:48.340Z</time>
      </trkpt>
      <trkpt lat="43.224269" lon="12.582152">
        <ele>378.548079</ele>
        <time>2026-04-23T09:33:56.724Z</time>
      </trkpt>
      <trkpt lat="43.223707" lon="12.581867">
        <ele>377.911201</ele>
        <time>2026-04-23T09:35:03.466Z</time>
      </trkpt>
      <trkpt lat="43.223456" lon="12.581873">
        <ele>377.633635</ele>
        <time>2026-04-23T09:35:31.104Z</time>
      </trkpt>
      <trkpt lat="43.222800" lon="12.582099">
        <ele>376.885805</ele>
        <time>2026-04-23T09:36:40.445Z</time>
      </trkpt>
      <trkpt lat="43.222542" lon="12.582221">
        <ele>376.584081</ele>
        <time>2026-04-23T09:37:08.787Z</time>
      </trkpt>
      <trkpt lat="43.222260" lon="12.582442">
        <ele>376.225019</ele>
        <time>2026-04-23T09:37:43.574Z</time>
      </trkpt>
      <trkpt lat="43.221948" lon="12.582629">
        <ele>375.210911</ele>
        <time>2026-04-23T09:38:20.772Z</time>
      </trkpt>
      <trkpt lat="43.221542" lon="12.583144">
        <ele>372.844577</ele>
        <time>2026-04-23T09:39:22.243Z</time>
      </trkpt>
      <trkpt lat="43.221338" lon="12.583465">
        <ele>371.516163</ele>
        <time>2026-04-23T09:39:57.074Z</time>
      </trkpt>
      <trkpt lat="43.221119" lon="12.583594">
        <ele>370.496135</ele>
        <time>2026-04-23T09:40:23.738Z</time>
      </trkpt>
      <trkpt lat="43.220658" lon="12.583734">
        <ele>368.475306</ele>
        <time>2026-04-23T09:41:15.878Z</time>
      </trkpt>
      <trkpt lat="43.220502" lon="12.583669">
        <ele>367.925388</ele>
        <time>2026-04-23T09:41:33.806Z</time>
      </trkpt>
      <trkpt lat="43.220450" lon="12.583574">
        <ele>367.646914</ele>
        <time>2026-04-23T09:41:43.301Z</time>
      </trkpt>
      <trkpt lat="43.220419" lon="12.583005">
        <ele>366.309587</ele>
        <time>2026-04-23T09:42:28.535Z</time>
      </trkpt>
      <trkpt lat="43.220489" lon="12.582898">
        <ele>365.972571</ele>
        <time>2026-04-23T09:42:39.845Z</time>
      </trkpt>
      <trkpt lat="43.220610" lon="12.582833">
        <ele>365.554647</ele>
        <time>2026-04-23T09:42:53.907Z</time>
      </trkpt>
      <trkpt lat="43.220759" lon="12.582806">
        <ele>365.071263</ele>
        <time>2026-04-23T09:43:10.168Z</time>
      </trkpt>
      <trkpt lat="43.220853" lon="12.582721">
        <ele>364.709198</ele>
        <time>2026-04-23T09:43:22.339Z</time>
      </trkpt>
      <trkpt lat="43.220900" lon="12.582528">
        <ele>364.232264</ele>
        <time>2026-04-23T09:43:38.262Z</time>
      </trkpt>
      <trkpt lat="43.220888" lon="12.582388">
        <ele>363.901876</ele>
        <time>2026-04-23T09:43:49.212Z</time>
      </trkpt>
      <trkpt lat="43.220829" lon="12.582233">
        <ele>363.492020</ele>
        <time>2026-04-23T09:44:02.744Z</time>
      </trkpt>
      <trkpt lat="43.220814" lon="12.582066">
        <ele>363.097650</ele>
        <time>2026-04-23T09:44:15.629Z</time>
      </trkpt>
      <trkpt lat="43.220833" lon="12.581868">
        <ele>362.629580</ele>
        <time>2026-04-23T09:44:30.939Z</time>
      </trkpt>
      <trkpt lat="43.220982" lon="12.581428">
        <ele>363.154324</ele>
        <time>2026-04-23T09:45:07.791Z</time>
      </trkpt>
      <trkpt lat="43.221205" lon="12.581047">
        <ele>363.747092</ele>
        <time>2026-04-23T09:45:43.846Z</time>
      </trkpt>
      <trkpt lat="43.221252" lon="12.580843">
        <ele>364.006616</ele>
        <time>2026-04-23T09:45:59.841Z</time>
      </trkpt>
      <trkpt lat="43.221388" lon="12.580521">
        <ele>364.458063</ele>
        <time>2026-04-23T09:46:28.707Z</time>
      </trkpt>
      <trkpt lat="43.221506" lon="12.580376">
        <ele>364.721721</ele>
        <time>2026-04-23T09:46:46.118Z</time>
      </trkpt>
      <trkpt lat="43.221521" lon="12.580216">
        <ele>364.917399</ele>
        <time>2026-04-23T09:46:59.468Z</time>
      </trkpt>
      <trkpt lat="43.221467" lon="12.579974">
        <ele>365.224397</ele>
        <time>2026-04-23T09:47:20.774Z</time>
      </trkpt>
      <trkpt lat="43.221529" lon="12.579325">
        <ele>367.687554</ele>
        <time>2026-04-23T09:48:17.551Z</time>
      </trkpt>
      <trkpt lat="43.221490" lon="12.579137">
        <ele>368.830611</ele>
        <time>2026-04-23T09:48:34.897Z</time>
      </trkpt>
      <trkpt lat="43.221381" lon="12.578944">
        <ele>370.258505</ele>
        <time>2026-04-23T09:48:56.897Z</time>
      </trkpt>
      <trkpt lat="43.221388" lon="12.578740">
        <ele>371.452771</ele>
        <time>2026-04-23T09:49:15.420Z</time>
      </trkpt>
      <trkpt lat="43.221424" lon="12.578585">
        <ele>372.404099</ele>
        <time>2026-04-23T09:49:30.294Z</time>
      </trkpt>
      <trkpt lat="43.221408" lon="12.578488">
        <ele>372.985683</ele>
        <time>2026-04-23T09:49:39.369Z</time>
      </trkpt>
      <trkpt lat="43.221345" lon="12.578451">
        <ele>373.535598</ele>
        <time>2026-04-23T09:49:47.998Z</time>
      </trkpt>
      <trkpt lat="43.221260" lon="12.578493">
        <ele>374.260576</ele>
        <time>2026-04-23T09:49:59.553Z</time>
      </trkpt>
      <trkpt lat="43.221111" lon="12.578628">
        <ele>375.693375</ele>
        <time>2026-04-23T09:50:22.294Z</time>
      </trkpt>
      <trkpt lat="43.221041" lon="12.578735">
        <ele>376.534246</ele>
        <time>2026-04-23T09:50:35.820Z</time>
      </trkpt>
      <trkpt lat="43.220876" lon="12.579126">
        <ele>379.176454</ele>
        <time>2026-04-23T09:51:19.049Z</time>
      </trkpt>
      <trkpt lat="43.220642" lon="12.579341">
        <ele>382.714957</ele>
        <time>2026-04-23T09:51:57.319Z</time>
      </trkpt>
      <trkpt lat="43.220548" lon="12.579481">
        <ele>384.829862</ele>
        <time>2026-04-23T09:52:17.346Z</time>
      </trkpt>
      <trkpt lat="43.220446" lon="12.579711">
        <ele>387.821072</ele>
        <time>2026-04-23T09:52:47.614Z</time>
      </trkpt>
      <trkpt lat="43.220298" lon="12.579813">
        <ele>390.345972</ele>
        <time>2026-04-23T09:53:14.423Z</time>
      </trkpt>
      <trkpt lat="43.220208" lon="12.579840">
        <ele>391.750466</ele>
        <time>2026-04-23T09:53:29.701Z</time>
      </trkpt>
      <trkpt lat="43.220122" lon="12.579518">
        <ele>395.560504</ele>
        <time>2026-04-23T09:54:12.902Z</time>
      </trkpt>
      <trkpt lat="43.220047" lon="12.579438">
        <ele>397.008715</ele>
        <time>2026-04-23T09:54:29.827Z</time>
      </trkpt>
      <trkpt lat="43.220001" lon="12.579303">
        <ele>398.664394</ele>
        <time>2026-04-23T09:54:49.590Z</time>
      </trkpt>
      <trkpt lat="43.219907" lon="12.578831">
        <ele>404.100514</ele>
        <time>2026-04-23T09:55:57.185Z</time>
      </trkpt>
      <trkpt lat="43.219821" lon="12.578730">
        <ele>405.826229</ele>
        <time>2026-04-23T09:56:19.307Z</time>
      </trkpt>
      <trkpt lat="43.219750" lon="12.578515">
        <ele>408.721819</ele>
        <time>2026-04-23T09:56:53.222Z</time>
      </trkpt>
      <trkpt lat="43.219641" lon="12.578451">
        <ele>411.017018</ele>
        <time>2026-04-23T09:57:17.085Z</time>
      </trkpt>
      <trkpt lat="43.219407" lon="12.578644">
        <ele>416.302364</ele>
        <time>2026-04-23T09:58:12.704Z</time>
      </trkpt>
      <trkpt lat="43.219301" lon="12.578681">
        <ele>418.419785</ele>
        <time>2026-04-23T09:58:35.089Z</time>
      </trkpt>
      <trkpt lat="43.219172" lon="12.578585">
        <ele>421.260722</ele>
        <time>2026-04-23T09:59:04.931Z</time>
      </trkpt>
      <trkpt lat="43.218922" lon="12.578467">
        <ele>426.378816</ele>
        <time>2026-04-23T09:59:57.686Z</time>
      </trkpt>
      <trkpt lat="43.218851" lon="12.578402">
        <ele>428.031136</ele>
        <time>2026-04-23T10:00:14.346Z</time>
      </trkpt>
      <trkpt lat="43.218722" lon="12.578081">
        <ele>433.202707</ele>
        <time>2026-04-23T10:01:06.918Z</time>
      </trkpt>
      <trkpt lat="43.218535" lon="12.577802">
        <ele>438.550467</ele>
        <time>2026-04-23T10:02:01.120Z</time>
      </trkpt>
      <trkpt lat="43.218437" lon="12.577727">
        <ele>440.722777</ele>
        <time>2026-04-23T10:02:23.225Z</time>
      </trkpt>
      <trkpt lat="43.218159" lon="12.577587">
        <ele>446.311201</ele>
        <time>2026-04-23T10:03:21.958Z</time>
      </trkpt>
      <trkpt lat="43.217604" lon="12.577549">
        <ele>456.698937</ele>
        <time>2026-04-23T10:05:13.233Z</time>
      </trkpt>
      <trkpt lat="43.217495" lon="12.577447">
        <ele>459.165221</ele>
        <time>2026-04-23T10:05:38.347Z</time>
      </trkpt>
      <trkpt lat="43.217440" lon="12.577351">
        <ele>460.828778</ele>
        <time>2026-04-23T10:05:54.725Z</time>
      </trkpt>
      <trkpt lat="43.217460" lon="12.577147">
        <ele>463.632904</ele>
        <time>2026-04-23T10:06:22.054Z</time>
      </trkpt>
      <trkpt lat="43.217549" lon="12.576992">
        <ele>466.321143</ele>
        <time>2026-04-23T10:06:48.441Z</time>
      </trkpt>
      <trkpt lat="43.217628" lon="12.576621">
        <ele>471.586596</ele>
        <time>2026-04-23T10:07:40.793Z</time>
      </trkpt>
      <trkpt lat="43.217561" lon="12.576525">
        <ele>473.397397</ele>
        <time>2026-04-23T10:07:59.046Z</time>
      </trkpt>
      <trkpt lat="43.217193" lon="12.576671">
        <ele>479.922383</ele>
        <time>2026-04-23T10:09:09.807Z</time>
      </trkpt>
      <trkpt lat="43.217045" lon="12.576616">
        <ele>482.399105</ele>
        <time>2026-04-23T10:09:37.654Z</time>
      </trkpt>
      <trkpt lat="43.216912" lon="12.576477">
        <ele>485.099576</ele>
        <time>2026-04-23T10:10:07.681Z</time>
      </trkpt>
      <trkpt lat="43.216772" lon="12.576272">
        <ele>488.406726</ele>
        <time>2026-04-23T10:10:43.770Z</time>
      </trkpt>
      <trkpt lat="43.216521" lon="12.576058">
        <ele>493.179944</ele>
        <time>2026-04-23T10:11:32.986Z</time>
      </trkpt>
      <trkpt lat="43.216162" lon="12.575951">
        <ele>499.113990</ele>
        <time>2026-04-23T10:12:35.070Z</time>
      </trkpt>
      <trkpt lat="43.215958" lon="12.575940">
        <ele>502.411688</ele>
        <time>2026-04-23T10:13:09.482Z</time>
      </trkpt>
      <trkpt lat="43.215286" lon="12.575736">
        <ele>512.157346</ele>
        <time>2026-04-23T10:14:57.005Z</time>
      </trkpt>
      <trkpt lat="43.214965" lon="12.575554">
        <ele>516.872554</ele>
        <time>2026-04-23T10:15:49.288Z</time>
      </trkpt>
      <trkpt lat="43.214598" lon="12.575575">
        <ele>521.859205</ele>
        <time>2026-04-23T10:16:45.789Z</time>
      </trkpt>
      <trkpt lat="43.214270" lon="12.575451">
        <ele>526.477990</ele>
        <time>2026-04-23T10:17:39.701Z</time>
      </trkpt>
      <trkpt lat="43.213714" lon="12.575307">
        <ele>532.139701</ele>
        <time>2026-04-23T10:19:11.387Z</time>
      </trkpt>
      <trkpt lat="43.213527" lon="12.575200">
        <ele>533.735098</ele>
        <time>2026-04-23T10:19:44.197Z</time>
      </trkpt>
      <trkpt lat="43.213347" lon="12.575146">
        <ele>535.185952</ele>
        <time>2026-04-23T10:20:13.514Z</time>
      </trkpt>
      <trkpt lat="43.212918" lon="12.574947">
        <ele>538.751843</ele>
        <time>2026-04-23T10:21:16.729Z</time>
      </trkpt>
      <trkpt lat="43.212698" lon="12.574942">
        <ele>540.484423</ele>
        <time>2026-04-23T10:21:44.037Z</time>
      </trkpt>
      <trkpt lat="43.212416" lon="12.574760">
        <ele>542.938355</ele>
        <time>2026-04-23T10:22:18.586Z</time>
      </trkpt>
      <trkpt lat="43.212275" lon="12.574621">
        <ele>543.152176</ele>
        <time>2026-04-23T10:22:36.197Z</time>
      </trkpt>
      <trkpt lat="43.211756" lon="12.574652">
        <ele>541.287305</ele>
        <time>2026-04-23T10:23:33.140Z</time>
      </trkpt>
      <trkpt lat="43.211335" lon="12.574730">
        <ele>539.762283</ele>
        <time>2026-04-23T10:24:23.166Z</time>
      </trkpt>
      <trkpt lat="43.211189" lon="12.574827">
        <ele>539.179959</ele>
        <time>2026-04-23T10:24:42.765Z</time>
      </trkpt>
      <trkpt lat="43.210844" lon="12.575348">
        <ele>537.338229</ele>
        <time>2026-04-23T10:25:44.073Z</time>
      </trkpt>
      <trkpt lat="43.210742" lon="12.575729">
        <ele>536.728023</ele>
        <time>2026-04-23T10:26:18.094Z</time>
      </trkpt>
      <trkpt lat="43.210675" lon="12.576139">
        <ele>536.265162</ele>
        <time>2026-04-23T10:26:51.850Z</time>
      </trkpt>
      <trkpt lat="43.210689" lon="12.576444">
        <ele>535.928513</ele>
        <time>2026-04-23T10:27:15.762Z</time>
      </trkpt>
      <trkpt lat="43.210782" lon="12.576885">
        <ele>535.422790</ele>
        <time>2026-04-23T10:27:50.863Z</time>
      </trkpt>
      <trkpt lat="43.210999" lon="12.577542">
        <ele>534.628205</ele>
        <time>2026-04-23T10:28:44.704Z</time>
      </trkpt>
      <trkpt lat="43.210966" lon="12.577668">
        <ele>534.480717</ele>
        <time>2026-04-23T10:28:55.546Z</time>
      </trkpt>
      <trkpt lat="43.210970" lon="12.577949">
        <ele>534.795050</ele>
        <time>2026-04-23T10:29:19.223Z</time>
      </trkpt>
      <trkpt lat="43.210908" lon="12.578290">
        <ele>535.854924</ele>
        <time>2026-04-23T10:29:49.717Z</time>
      </trkpt>
      <trkpt lat="43.210837" lon="12.578594">
        <ele>536.817621</ele>
        <time>2026-04-23T10:30:18.398Z</time>
      </trkpt>
      <trkpt lat="43.210775" lon="12.579238">
        <ele>538.776615</ele>
        <time>2026-04-23T10:31:17.236Z</time>
      </trkpt>
      <trkpt lat="43.210615" lon="12.579736">
        <ele>540.417891</ele>
        <time>2026-04-23T10:32:07.258Z</time>
      </trkpt>
      <trkpt lat="43.210602" lon="12.579919">
        <ele>540.972384</ele>
        <time>2026-04-23T10:32:24.191Z</time>
      </trkpt>
      <trkpt lat="43.210623" lon="12.580147">
        <ele>541.665440</ele>
        <time>2026-04-23T10:32:45.030Z</time>
      </trkpt>
      <trkpt lat="43.210746" lon="12.580404">
        <ele>541.783174</ele>
        <time>2026-04-23T10:33:12.009Z</time>
      </trkpt>
      <trkpt lat="43.210974" lon="12.580689">
        <ele>541.787694</ele>
        <time>2026-04-23T10:33:46.936Z</time>
      </trkpt>
      <trkpt lat="43.211058" lon="12.580960">
        <ele>541.790839</ele>
        <time>2026-04-23T10:34:09.638Z</time>
      </trkpt>
      <trkpt lat="43.211090" lon="12.581171">
        <ele>541.793141</ele>
        <time>2026-04-23T10:34:25.388Z</time>
      </trkpt>
      <trkpt lat="43.211069" lon="12.581355">
        <ele>541.795130</ele>
        <time>2026-04-23T10:34:39.359Z</time>
      </trkpt>
      <trkpt lat="43.211027" lon="12.581487">
        <ele>541.796669</ele>
        <time>2026-04-23T10:34:50.388Z</time>
      </trkpt>
      <trkpt lat="43.210830" lon="12.581814">
        <ele>541.801200</ele>
        <time>2026-04-23T10:35:23.558Z</time>
      </trkpt>
      <trkpt lat="43.210791" lon="12.581935">
        <ele>541.802613</ele>
        <time>2026-04-23T10:35:33.994Z</time>
      </trkpt>
      <trkpt lat="43.210737" lon="12.582432">
        <ele>541.294829</ele>
        <time>2026-04-23T10:36:14.170Z</time>
      </trkpt>
      <trkpt lat="43.210744" lon="12.582963">
        <ele>539.103759</ele>
        <time>2026-04-23T10:36:57.167Z</time>
      </trkpt>
      <trkpt lat="43.210785" lon="12.583163">
        <ele>538.246616</ele>
        <time>2026-04-23T10:37:14.056Z</time>
      </trkpt>
      <trkpt lat="43.211269" lon="12.584628">
        <ele>531.595600</ele>
        <time>2026-04-23T10:39:23.648Z</time>
      </trkpt>
      <trkpt lat="43.211386" lon="12.585049">
        <ele>527.837314</ele>
        <time>2026-04-23T10:40:00.967Z</time>
      </trkpt>
      <trkpt lat="43.211444" lon="12.585432">
        <ele>524.574396</ele>
        <time>2026-04-23T10:40:34.673Z</time>
      </trkpt>
      <trkpt lat="43.211490" lon="12.585487">
        <ele>523.876099</ele>
        <time>2026-04-23T10:40:42.085Z</time>
      </trkpt>
      <trkpt lat="43.211423" lon="12.585875">
        <ele>520.550113</ele>
        <time>2026-04-23T10:41:18.286Z</time>
      </trkpt>
      <trkpt lat="43.211431" lon="12.586412">
        <ele>516.069945</ele>
        <time>2026-04-23T10:42:09.607Z</time>
      </trkpt>
      <trkpt lat="43.211392" lon="12.586680">
        <ele>513.790375</ele>
        <time>2026-04-23T10:42:37.740Z</time>
      </trkpt>
      <trkpt lat="43.211283" lon="12.586888">
        <ele>511.653483</ele>
        <time>2026-04-23T10:43:04.020Z</time>
      </trkpt>
      <trkpt lat="43.210884" lon="12.587295">
        <ele>506.997725</ele>
        <time>2026-04-23T10:44:11.632Z</time>
      </trkpt>
      <trkpt lat="43.210735" lon="12.587377">
        <ele>505.534722</ele>
        <time>2026-04-23T10:44:32.453Z</time>
      </trkpt>
      <trkpt lat="43.210602" lon="12.587409">
        <ele>504.304191</ele>
        <time>2026-04-23T10:44:49.660Z</time>
      </trkpt>
      <trkpt lat="43.210462" lon="12.587381">
        <ele>503.014879</ele>
        <time>2026-04-23T10:45:07.364Z</time>
      </trkpt>
      <trkpt lat="43.210031" lon="12.586776">
        <ele>497.395737</ele>
        <time>2026-04-23T10:46:19.350Z</time>
      </trkpt>
      <trkpt lat="43.209602" lon="12.586405">
        <ele>494.135667</ele>
        <time>2026-04-23T10:47:10.147Z</time>
      </trkpt>
      <trkpt lat="43.209516" lon="12.586394">
        <ele>493.919998</ele>
        <time>2026-04-23T10:47:19.601Z</time>
      </trkpt>
      <trkpt lat="43.209461" lon="12.586308">
        <ele>493.711776</ele>
        <time>2026-04-23T10:47:28.613Z</time>
      </trkpt>
      <trkpt lat="43.209469" lon="12.586126">
        <ele>493.379949</ele>
        <time>2026-04-23T10:47:43.025Z</time>
      </trkpt>
      <trkpt lat="43.209601" lon="12.586036">
        <ele>493.011897</ele>
        <time>2026-04-23T10:47:58.938Z</time>
      </trkpt>
      <trkpt lat="43.209875" lon="12.585757">
        <ele>492.159901</ele>
        <time>2026-04-23T10:48:35.194Z</time>
      </trkpt>
      <trkpt lat="43.209967" lon="12.585536">
        <ele>491.696722</ele>
        <time>2026-04-23T10:48:54.671Z</time>
      </trkpt>
      <trkpt lat="43.209978" lon="12.585342">
        <ele>491.342595</ele>
        <time>2026-04-23T10:49:09.340Z</time>
      </trkpt>
      <trkpt lat="43.209810" lon="12.584679">
        <ele>489.875796</ele>
        <time>2026-04-23T10:50:00.845Z</time>
      </trkpt>
      <trkpt lat="43.209589" lon="12.584314">
        <ele>487.256185</ele>
        <time>2026-04-23T10:50:37.789Z</time>
      </trkpt>
      <trkpt lat="43.209492" lon="12.584221">
        <ele>486.359858</ele>
        <time>2026-04-23T10:50:50.963Z</time>
      </trkpt>
      <trkpt lat="43.209326" lon="12.584144">
        <ele>485.032599</ele>
        <time>2026-04-23T10:51:11.039Z</time>
      </trkpt>
      <trkpt lat="43.209134" lon="12.584159">
        <ele>483.575964</ele>
        <time>2026-04-23T10:51:33.495Z</time>
      </trkpt>
      <trkpt lat="43.208956" lon="12.584255">
        <ele>482.127300</ele>
        <time>2026-04-23T10:51:56.113Z</time>
      </trkpt>
      <trkpt lat="43.208795" lon="12.584266">
        <ele>480.906315</ele>
        <time>2026-04-23T10:52:15.700Z</time>
      </trkpt>
      <trkpt lat="43.208651" lon="12.584173">
        <ele>479.700807</ele>
        <time>2026-04-23T10:52:35.245Z</time>
      </trkpt>
      <trkpt lat="43.208487" lon="12.584004">
        <ele>478.147250</ele>
        <time>2026-04-23T10:53:00.840Z</time>
      </trkpt>
      <trkpt lat="43.208303" lon="12.583976">
        <ele>476.745019</ele>
        <time>2026-04-23T10:53:24.096Z</time>
      </trkpt>
      <trkpt lat="43.208194" lon="12.583996">
        <ele>475.684908</ele>
        <time>2026-04-23T10:53:38.034Z</time>
      </trkpt>
      <trkpt lat="43.207959" lon="12.584040">
        <ele>473.233024</ele>
        <time>2026-04-23T10:54:08.074Z</time>
      </trkpt>
      <trkpt lat="43.207756" lon="12.583869">
        <ele>470.770484</ele>
        <time>2026-04-23T10:54:38.451Z</time>
      </trkpt>
      <trkpt lat="43.207342" lon="12.583669">
        <ele>466.233097</ele>
        <time>2026-04-23T10:55:33.147Z</time>
      </trkpt>
      <trkpt lat="43.207216" lon="12.583515">
        <ele>464.488635</ele>
        <time>2026-04-23T10:55:53.792Z</time>
      </trkpt>
      <trkpt lat="43.207232" lon="12.583118">
        <ele>461.492676</ele>
        <time>2026-04-23T10:56:28.647Z</time>
      </trkpt>
      <trkpt lat="43.207147" lon="12.582693">
        <ele>458.171936</ele>
        <time>2026-04-23T10:57:06.427Z</time>
      </trkpt>
      <trkpt lat="43.207177" lon="12.582388">
        <ele>456.593296</ele>
        <time>2026-04-23T10:57:32.477Z</time>
      </trkpt>
      <trkpt lat="43.207310" lon="12.582099">
        <ele>454.931178</ele>
        <time>2026-04-23T10:58:01.129Z</time>
      </trkpt>
      <trkpt lat="43.207302" lon="12.581862">
        <ele>453.777399</ele>
        <time>2026-04-23T10:58:20.592Z</time>
      </trkpt>
      <trkpt lat="43.207272" lon="12.581738">
        <ele>453.142028</ele>
        <time>2026-04-23T10:58:31.325Z</time>
      </trkpt>
      <trkpt lat="43.207302" lon="12.581530">
        <ele>452.110900</ele>
        <time>2026-04-23T10:58:48.505Z</time>
      </trkpt>
      <trkpt lat="43.207560" lon="12.581262">
        <ele>449.951811</ele>
        <time>2026-04-23T10:59:24.219Z</time>
      </trkpt>
      <trkpt lat="43.207600" lon="12.581062">
        <ele>448.943254</ele>
        <time>2026-04-23T10:59:40.748Z</time>
      </trkpt>
      <trkpt lat="43.207600" lon="12.580418">
        <ele>445.851332</ele>
        <time>2026-04-23T11:00:32.112Z</time>
      </trkpt>
      <trkpt lat="43.207694" lon="12.580247">
        <ele>445.131931</ele>
        <time>2026-04-23T11:00:49.807Z</time>
      </trkpt>
      <trkpt lat="43.207896" lon="12.580092">
        <ele>444.065364</ele>
        <time>2026-04-23T11:01:16.203Z</time>
      </trkpt>
      <trkpt lat="43.208171" lon="12.579732">
        <ele>442.313765</ele>
        <time>2026-04-23T11:01:58.302Z</time>
      </trkpt>
      <trkpt lat="43.208170" lon="12.579481">
        <ele>441.470686</ele>
        <time>2026-04-23T11:02:17.982Z</time>
      </trkpt>
      <trkpt lat="43.208038" lon="12.579195">
        <ele>440.333663</ele>
        <time>2026-04-23T11:02:44.164Z</time>
      </trkpt>
      <trkpt lat="43.208014" lon="12.578966">
        <ele>439.556578</ele>
        <time>2026-04-23T11:03:01.769Z</time>
      </trkpt>
      <trkpt lat="43.208022" lon="12.578777">
        <ele>438.920688</ele>
        <time>2026-04-23T11:03:16.487Z</time>
      </trkpt>
      <trkpt lat="43.208343" lon="12.578208">
        <ele>437.082822</ele>
        <time>2026-04-23T11:04:14.808Z</time>
      </trkpt>
      <trkpt lat="43.208437" lon="12.578015">
        <ele>436.696383</ele>
        <time>2026-04-23T11:04:33.969Z</time>
      </trkpt>
      <trkpt lat="43.208523" lon="12.577758">
        <ele>436.225594</ele>
        <time>2026-04-23T11:04:56.566Z</time>
      </trkpt>
      <trkpt lat="43.208014" lon="12.577500">
        <ele>434.986191</ele>
        <time>2026-04-23T11:05:53.948Z</time>
      </trkpt>
      <trkpt lat="43.207741" lon="12.577328">
        <ele>434.300032</ele>
        <time>2026-04-23T11:06:25.307Z</time>
      </trkpt>
      <trkpt lat="43.207740" lon="12.577120">
        <ele>433.953743</ele>
        <time>2026-04-23T11:06:41.125Z</time>
      </trkpt>
      <trkpt lat="43.207639" lon="12.576749">
        <ele>433.842741</ele>
        <time>2026-04-23T11:07:11.285Z</time>
      </trkpt>
      <trkpt lat="43.207545" lon="12.575869">
        <ele>435.621781</ele>
        <time>2026-04-23T11:08:21.570Z</time>
      </trkpt>
      <trkpt lat="43.207451" lon="12.575865">
        <ele>435.879871</ele>
        <time>2026-04-23T11:08:32.694Z</time>
      </trkpt>
      <trkpt lat="43.207350" lon="12.575944">
        <ele>436.198928</ele>
        <time>2026-04-23T11:08:46.612Z</time>
      </trkpt>
      <trkpt lat="43.207232" lon="12.576316">
        <ele>437.010443</ele>
        <time>2026-04-23T11:09:22.740Z</time>
      </trkpt>
      <trkpt lat="43.206950" lon="12.576541">
        <ele>437.905694</ele>
        <time>2026-04-23T11:10:02.710Z</time>
      </trkpt>
      <trkpt lat="43.206646" lon="12.576577">
        <ele>438.815935</ele>
        <time>2026-04-23T11:10:39.147Z</time>
      </trkpt>
      <trkpt lat="43.206490" lon="12.576674">
        <ele>439.415929</ele>
        <time>2026-04-23T11:10:59.093Z</time>
      </trkpt>
      <trkpt lat="43.206193" lon="12.576910">
        <ele>440.618267</ele>
        <time>2026-04-23T11:11:38.047Z</time>
      </trkpt>
      <trkpt lat="43.205903" lon="12.577210">
        <ele>441.890609</ele>
        <time>2026-04-23T11:12:17.946Z</time>
      </trkpt>
      <trkpt lat="43.205715" lon="12.577328">
        <ele>442.614846</ele>
        <time>2026-04-23T11:12:40.464Z</time>
      </trkpt>
      <trkpt lat="43.205707" lon="12.577753">
        <ele>443.700414</ele>
        <time>2026-04-23T11:13:14.179Z</time>
      </trkpt>
      <trkpt lat="43.205629" lon="12.577940">
        <ele>444.250558</ele>
        <time>2026-04-23T11:13:30.993Z</time>
      </trkpt>
      <trkpt lat="43.205300" lon="12.578236">
        <ele>445.865908</ele>
        <time>2026-04-23T11:14:13.075Z</time>
      </trkpt>
      <trkpt lat="43.205168" lon="12.578294">
        <ele>446.487149</ele>
        <time>2026-04-23T11:14:28.059Z</time>
      </trkpt>
      <trkpt lat="43.204980" lon="12.578294">
        <ele>447.329783</ele>
        <time>2026-04-23T11:14:48.609Z</time>
      </trkpt>
      <trkpt lat="43.204847" lon="12.578204">
        <ele>447.994474</ele>
        <time>2026-04-23T11:15:05.193Z</time>
      </trkpt>
      <trkpt lat="43.204613" lon="12.578155">
        <ele>449.055433</ele>
        <time>2026-04-23T11:15:32.114Z</time>
      </trkpt>
      <trkpt lat="43.204431" lon="12.578343">
        <ele>450.076554</ele>
        <time>2026-04-23T11:15:58.996Z</time>
      </trkpt>
      <trkpt lat="43.204309" lon="12.578524">
        <ele>450.881968</ele>
        <time>2026-04-23T11:16:20.685Z</time>
      </trkpt>
      <trkpt lat="43.204112" lon="12.578642">
        <ele>451.845433</ele>
        <time>2026-04-23T11:16:46.998Z</time>
      </trkpt>
      <trkpt lat="43.203721" lon="12.578547">
        <ele>453.768375</ele>
        <time>2026-04-23T11:17:35.900Z</time>
      </trkpt>
      <trkpt lat="43.203309" lon="12.578632">
        <ele>455.977161</ele>
        <time>2026-04-23T11:18:27.201Z</time>
      </trkpt>
      <trkpt lat="43.203114" lon="12.578722">
        <ele>457.067894</ele>
        <time>2026-04-23T11:18:52.347Z</time>
      </trkpt>
      <trkpt lat="43.202888" lon="12.578874">
        <ele>458.402278</ele>
        <time>2026-04-23T11:19:23.017Z</time>
      </trkpt>
      <trkpt lat="43.202517" lon="12.579313">
        <ele>460.999712</ele>
        <time>2026-04-23T11:20:23.097Z</time>
      </trkpt>
      <trkpt lat="43.202262" lon="12.579473">
        <ele>462.379733</ele>
        <time>2026-04-23T11:20:57.302Z</time>
      </trkpt>
      <trkpt lat="43.202016" lon="12.579474">
        <ele>462.404998</ele>
        <time>2026-04-23T11:21:26.228Z</time>
      </trkpt>
      <trkpt lat="43.201848" lon="12.579397">
        <ele>462.423190</ele>
        <time>2026-04-23T11:21:46.714Z</time>
      </trkpt>
      <trkpt lat="43.201578" lon="12.579341">
        <ele>462.451235</ele>
        <time>2026-04-23T11:22:17.131Z</time>
      </trkpt>
      <trkpt lat="43.201344" lon="12.579346">
        <ele>462.475271</ele>
        <time>2026-04-23T11:22:41.988Z</time>
      </trkpt>
      <trkpt lat="43.201109" lon="12.579496">
        <ele>462.501891</ele>
        <time>2026-04-23T11:23:08.114Z</time>
      </trkpt>
      <trkpt lat="43.200990" lon="12.579714">
        <ele>462.522281</ele>
        <time>2026-04-23T11:23:28.365Z</time>
      </trkpt>
      <trkpt lat="43.200959" lon="12.579984">
        <ele>462.542744</ele>
        <time>2026-04-23T11:23:49.243Z</time>
      </trkpt>
      <trkpt lat="43.200893" lon="12.580188">
        <ele>462.559454</ele>
        <time>2026-04-23T11:24:06.674Z</time>
      </trkpt>
      <trkpt lat="43.200499" lon="12.580569">
        <ele>458.449753</ele>
        <time>2026-04-23T11:25:01.496Z</time>
      </trkpt>
      <trkpt lat="43.200440" lon="12.580826">
        <ele>456.669703</ele>
        <time>2026-04-23T11:25:24.829Z</time>
      </trkpt>
      <trkpt lat="43.200340" lon="12.581098">
        <ele>454.657158</ele>
        <time>2026-04-23T11:25:51.619Z</time>
      </trkpt>
      <trkpt lat="43.200221" lon="12.581314">
        <ele>452.868478</ele>
        <time>2026-04-23T11:26:15.838Z</time>
      </trkpt>
      <trkpt lat="43.200076" lon="12.581873">
        <ele>448.948647</ele>
        <time>2026-04-23T11:27:09.878Z</time>
      </trkpt>
      <trkpt lat="43.199928" lon="12.582114">
        <ele>446.866821</ele>
        <time>2026-04-23T11:27:38.891Z</time>
      </trkpt>
      <trkpt lat="43.199537" lon="12.582253">
        <ele>442.360461</ele>
        <time>2026-04-23T11:28:30.609Z</time>
      </trkpt>
      <trkpt lat="43.199059" lon="12.582528">
        <ele>436.362622</ele>
        <time>2026-04-23T11:29:36.847Z</time>
      </trkpt>
      <trkpt lat="43.198676" lon="12.582860">
        <ele>431.120104</ele>
        <time>2026-04-23T11:30:33.361Z</time>
      </trkpt>
      <trkpt lat="43.198582" lon="12.582892">
        <ele>429.999405</ele>
        <time>2026-04-23T11:30:45.158Z</time>
      </trkpt>
      <trkpt lat="43.198527" lon="12.582850">
        <ele>429.271014</ele>
        <time>2026-04-23T11:30:52.798Z</time>
      </trkpt>
      <trkpt lat="43.198497" lon="12.582671">
        <ele>427.721695</ele>
        <time>2026-04-23T11:31:08.855Z</time>
      </trkpt>
      <trkpt lat="43.198622" lon="12.582135">
        <ele>423.923865</ele>
        <time>2026-04-23T11:31:57.870Z</time>
      </trkpt>
      <trkpt lat="43.198575" lon="12.581813">
        <ele>422.216457</ele>
        <time>2026-04-23T11:32:26.198Z</time>
      </trkpt>
      <trkpt lat="43.198347" lon="12.581347">
        <ele>419.298453</ele>
        <time>2026-04-23T11:33:14.411Z</time>
      </trkpt>
      <trkpt lat="43.198199" lon="12.581208">
        <ele>418.019178</ele>
        <time>2026-04-23T11:33:35.529Z</time>
      </trkpt>
      <trkpt lat="43.197988" lon="12.581186">
        <ele>416.509931</ele>
        <time>2026-04-23T11:34:00.069Z</time>
      </trkpt>
      <trkpt lat="43.197590" lon="12.581427">
        <ele>413.407029</ele>
        <time>2026-04-23T11:34:49.109Z</time>
      </trkpt>
      <trkpt lat="43.197410" lon="12.581427">
        <ele>412.666245</ele>
        <time>2026-04-23T11:35:08.714Z</time>
      </trkpt>
      <trkpt lat="43.197299" lon="12.581240">
        <ele>412.781253</ele>
        <time>2026-04-23T11:35:27.373Z</time>
      </trkpt>
      <trkpt lat="43.197089" lon="12.580633">
        <ele>413.101684</ele>
        <time>2026-04-23T11:36:16.703Z</time>
      </trkpt>
      <trkpt lat="43.197198" lon="12.580446">
        <ele>413.215870</ele>
        <time>2026-04-23T11:36:35.668Z</time>
      </trkpt>
      <trkpt lat="43.197504" lon="12.580257">
        <ele>413.435412</ele>
        <time>2026-04-23T11:37:13.798Z</time>
      </trkpt>
      <trkpt lat="43.197723" lon="12.580021">
        <ele>413.617604</ele>
        <time>2026-04-23T11:37:46.574Z</time>
      </trkpt>
      <trkpt lat="43.197753" lon="12.579695">
        <ele>413.774310</ele>
        <time>2026-04-23T11:38:14.802Z</time>
      </trkpt>
      <trkpt lat="43.197730" lon="12.579485">
        <ele>414.144258</ele>
        <time>2026-04-23T11:38:33.202Z</time>
      </trkpt>
      <trkpt lat="43.197636" lon="12.579277">
        <ele>414.661498</ele>
        <time>2026-04-23T11:38:54.290Z</time>
      </trkpt>
      <trkpt lat="43.197526" lon="12.579105">
        <ele>415.145094</ele>
        <time>2026-04-23T11:39:13.781Z</time>
      </trkpt>
      <trkpt lat="43.197464" lon="12.578923">
        <ele>415.569688</ele>
        <time>2026-04-23T11:39:30.936Z</time>
      </trkpt>
      <trkpt lat="43.197542" lon="12.578504">
        <ele>416.483687</ele>
        <time>2026-04-23T11:40:07.514Z</time>
      </trkpt>
      <trkpt lat="43.197550" lon="12.578279">
        <ele>416.959802</ele>
        <time>2026-04-23T11:40:26.626Z</time>
      </trkpt>
      <trkpt lat="43.197511" lon="12.578004">
        <ele>417.551926</ele>
        <time>2026-04-23T11:40:50.380Z</time>
      </trkpt>
      <trkpt lat="43.197566" lon="12.577758">
        <ele>418.095764</ele>
        <time>2026-04-23T11:41:12.136Z</time>
      </trkpt>
      <trkpt lat="43.197691" lon="12.577607">
        <ele>418.578665</ele>
        <time>2026-04-23T11:41:31.079Z</time>
      </trkpt>
      <trkpt lat="43.197870" lon="12.577517">
        <ele>418.909954</ele>
        <time>2026-04-23T11:41:52.267Z</time>
      </trkpt>
      <trkpt lat="43.198341" lon="12.577393">
        <ele>417.720845</ele>
        <time>2026-04-23T11:42:42.486Z</time>
      </trkpt>
      <trkpt lat="43.198505" lon="12.577135">
        <ele>417.102139</ele>
        <time>2026-04-23T11:43:08.194Z</time>
      </trkpt>
      <trkpt lat="43.198504" lon="12.576873">
        <ele>416.628581</ele>
        <time>2026-04-23T11:43:28.697Z</time>
      </trkpt>
      <trkpt lat="43.198403" lon="12.576663">
        <ele>416.173851</ele>
        <time>2026-04-23T11:43:49.049Z</time>
      </trkpt>
      <trkpt lat="43.198129" lon="12.576337">
        <ele>415.274565</ele>
        <time>2026-04-23T11:44:30.656Z</time>
      </trkpt>
      <trkpt lat="43.198012" lon="12.576137">
        <ele>414.811069</ele>
        <time>2026-04-23T11:44:52.672Z</time>
      </trkpt>
      <trkpt lat="43.198106" lon="12.575633">
        <ele>413.700853</ele>
        <time>2026-04-23T11:45:37.880Z</time>
      </trkpt>
      <trkpt lat="43.198168" lon="12.575468">
        <ele>413.281709</ele>
        <time>2026-04-23T11:45:53.687Z</time>
      </trkpt>
      <trkpt lat="43.198121" lon="12.575178">
        <ele>412.610913</ele>
        <time>2026-04-23T11:46:18.827Z</time>
      </trkpt>
      <trkpt lat="43.198106" lon="12.574625">
        <ele>411.361396</ele>
        <time>2026-04-23T11:47:04.030Z</time>
      </trkpt>
      <trkpt lat="43.198176" lon="12.574410">
        <ele>410.829717</ele>
        <time>2026-04-23T11:47:22.287Z</time>
      </trkpt>
      <trkpt lat="43.198387" lon="12.574191">
        <ele>410.010177</ele>
        <time>2026-04-23T11:47:49.144Z</time>
      </trkpt>
      <trkpt lat="43.198372" lon="12.574045">
        <ele>409.677258</ele>
        <time>2026-04-23T11:48:00.100Z</time>
      </trkpt>
      <trkpt lat="43.198293" lon="12.573859">
        <ele>409.191195</ele>
        <time>2026-04-23T11:48:16.707Z</time>
      </trkpt>
      <trkpt lat="43.198333" lon="12.573745">
        <ele>409.026131</ele>
        <time>2026-04-23T11:48:26.646Z</time>
      </trkpt>
      <trkpt lat="43.198355" lon="12.573505">
        <ele>409.348119</ele>
        <time>2026-04-23T11:48:46.197Z</time>
      </trkpt>
      <trkpt lat="43.198325" lon="12.573380">
        <ele>409.523296</ele>
        <time>2026-04-23T11:48:57.028Z</time>
      </trkpt>
      <trkpt lat="43.198262" lon="12.573312">
        <ele>409.669676</ele>
        <time>2026-04-23T11:49:06.233Z</time>
      </trkpt>
      <trkpt lat="43.198129" lon="12.573305">
        <ele>409.912713</ele>
        <time>2026-04-23T11:49:21.484Z</time>
      </trkpt>
      <trkpt lat="43.197965" lon="12.573359">
        <ele>410.220684</ele>
        <time>2026-04-23T11:49:41.097Z</time>
      </trkpt>
      <trkpt lat="43.197871" lon="12.573284">
        <ele>410.419251</ele>
        <time>2026-04-23T11:49:53.558Z</time>
      </trkpt>
      <trkpt lat="43.197659" lon="12.573440">
        <ele>410.858543</ele>
        <time>2026-04-23T11:50:21.045Z</time>
      </trkpt>
      <trkpt lat="43.197534" lon="12.573483">
        <ele>411.093861</ele>
        <time>2026-04-23T11:50:35.826Z</time>
      </trkpt>
      <trkpt lat="43.197409" lon="12.573590">
        <ele>411.362907</ele>
        <time>2026-04-23T11:50:52.440Z</time>
      </trkpt>
      <trkpt lat="43.197324" lon="12.573734">
        <ele>411.609552</ele>
        <time>2026-04-23T11:51:07.443Z</time>
      </trkpt>
      <trkpt lat="43.197214" lon="12.573831">
        <ele>411.848335</ele>
        <time>2026-04-23T11:51:21.582Z</time>
      </trkpt>
      <trkpt lat="43.197018" lon="12.573880">
        <ele>412.212127</ele>
        <time>2026-04-23T11:51:42.854Z</time>
      </trkpt>
      <trkpt lat="43.196861" lon="12.574138">
        <ele>412.416603</ele>
        <time>2026-04-23T11:52:08.406Z</time>
      </trkpt>
      <trkpt lat="43.196760" lon="12.574245">
        <ele>412.505889</ele>
        <time>2026-04-23T11:52:21.776Z</time>
      </trkpt>
      <trkpt lat="43.196650" lon="12.574245">
        <ele>412.582851</ele>
        <time>2026-04-23T11:52:33.211Z</time>
      </trkpt>
      <trkpt lat="43.196564" lon="12.574299">
        <ele>412.649026</ele>
        <time>2026-04-23T11:52:43.095Z</time>
      </trkpt>
      <trkpt lat="43.196470" lon="12.574739">
        <ele>412.882889</ele>
        <time>2026-04-23T11:53:18.598Z</time>
      </trkpt>
      <trkpt lat="43.196400" lon="12.574856">
        <ele>412.960090</ele>
        <time>2026-04-23T11:53:30.655Z</time>
      </trkpt>
      <trkpt lat="43.196275" lon="12.574910">
        <ele>413.051782</ele>
        <time>2026-04-23T11:53:44.710Z</time>
      </trkpt>
      <trkpt lat="43.196040" lon="12.574910">
        <ele>413.216201</ele>
        <time>2026-04-23T11:54:09.485Z</time>
      </trkpt>
      <trkpt lat="43.195595" lon="12.574850">
        <ele>413.496613</ele>
        <time>2026-04-23T11:54:55.786Z</time>
      </trkpt>
      <trkpt lat="43.195392" lon="12.574957">
        <ele>412.639868</ele>
        <time>2026-04-23T11:55:17.650Z</time>
      </trkpt>
      <trkpt lat="43.195329" lon="12.575071">
        <ele>412.229017</ele>
        <time>2026-04-23T11:55:28.291Z</time>
      </trkpt>
      <trkpt lat="43.195000" lon="12.575168">
        <ele>410.903295</ele>
        <time>2026-04-23T11:56:03.424Z</time>
      </trkpt>
      <trkpt lat="43.194069" lon="12.575264">
        <ele>407.225204</ele>
        <time>2026-04-23T11:57:50.810Z</time>
      </trkpt>
      <trkpt lat="43.193984" lon="12.575397">
        <ele>406.717217</ele>
        <time>2026-04-23T11:58:06.247Z</time>
      </trkpt>
      <trkpt lat="43.193960" lon="12.575575">
        <ele>406.270947</ele>
        <time>2026-04-23T11:58:21.956Z</time>
      </trkpt>
      <trkpt lat="43.193647" lon="12.576101">
        <ele>404.916797</ele>
        <time>2026-04-23T11:59:19.237Z</time>
      </trkpt>
      <trkpt lat="43.193585" lon="12.576277">
        <ele>404.526948</ele>
        <time>2026-04-23T11:59:35.007Z</time>
      </trkpt>
      <trkpt lat="43.193443" lon="12.576444">
        <ele>404.015245</ele>
        <time>2026-04-23T11:59:55.212Z</time>
      </trkpt>
      <trkpt lat="43.193123" lon="12.576949">
        <ele>402.680786</ele>
        <time>2026-04-23T12:00:44.967Z</time>
      </trkpt>
      <trkpt lat="43.193038" lon="12.577017">
        <ele>402.411594</ele>
        <time>2026-04-23T12:00:55.340Z</time>
      </trkpt>
      <trkpt lat="43.192927" lon="12.577174">
        <ele>401.975409</ele>
        <time>2026-04-23T12:01:12.504Z</time>
      </trkpt>
      <trkpt lat="43.192318" lon="12.577575">
        <ele>400.326986</ele>
        <time>2026-04-23T12:02:29.382Z</time>
      </trkpt>
      <trkpt lat="43.192286" lon="12.577678">
        <ele>400.135741</ele>
        <time>2026-04-23T12:02:38.648Z</time>
      </trkpt>
      <trkpt lat="43.191934" lon="12.578193">
        <ele>398.929929</ele>
        <time>2026-04-23T12:03:34.861Z</time>
      </trkpt>
      <trkpt lat="43.191832" lon="12.578676">
        <ele>398.070986</ele>
        <time>2026-04-23T12:04:12.796Z</time>
      </trkpt>
      <trkpt lat="43.191785" lon="12.579245">
        <ele>396.322115</ele>
        <time>2026-04-23T12:04:59.714Z</time>
      </trkpt>
      <trkpt lat="43.191824" lon="12.579459">
        <ele>394.568283</ele>
        <time>2026-04-23T12:05:18.755Z</time>
      </trkpt>
      <trkpt lat="43.191802" lon="12.579624">
        <ele>393.234637</ele>
        <time>2026-04-23T12:05:33.496Z</time>
      </trkpt>
      <trkpt lat="43.191910" lon="12.579738">
        <ele>391.748450</ele>
        <time>2026-04-23T12:05:50.267Z</time>
      </trkpt>
      <trkpt lat="43.191918" lon="12.579921">
        <ele>390.290835</ele>
        <time>2026-04-23T12:06:06.817Z</time>
      </trkpt>
      <trkpt lat="43.191871" lon="12.580157">
        <ele>388.345693</ele>
        <time>2026-04-23T12:06:29.271Z</time>
      </trkpt>
      <trkpt lat="43.191902" lon="12.580446">
        <ele>386.023167</ele>
        <time>2026-04-23T12:06:56.608Z</time>
      </trkpt>
      <trkpt lat="43.191989" lon="12.580832">
        <ele>382.810839</ele>
        <time>2026-04-23T12:07:35.073Z</time>
      </trkpt>
      <trkpt lat="43.191966" lon="12.581094">
        <ele>380.712678</ele>
        <time>2026-04-23T12:08:00.581Z</time>
      </trkpt>
      <trkpt lat="43.191770" lon="12.581202">
        <ele>378.409167</ele>
        <time>2026-04-23T12:08:28.821Z</time>
      </trkpt>
      <trkpt lat="43.191550" lon="12.581251">
        <ele>376.226894</ele>
        <time>2026-04-23T12:08:58.610Z</time>
      </trkpt>
      <trkpt lat="43.191145" lon="12.581416">
        <ele>372.288610</ele>
        <time>2026-04-23T12:09:53.746Z</time>
      </trkpt>
      <trkpt lat="43.190879" lon="12.581470">
        <ele>369.782042</ele>
        <time>2026-04-23T12:10:27.714Z</time>
      </trkpt>
      <trkpt lat="43.190672" lon="12.581666">
        <ele>367.437335</ele>
        <time>2026-04-23T12:10:58.108Z</time>
      </trkpt>
      <trkpt lat="43.190244" lon="12.581852">
        <ele>363.252200</ele>
        <time>2026-04-23T12:11:48.949Z</time>
      </trkpt>
      <trkpt lat="43.190190" lon="12.581626">
        <ele>361.635863</ele>
        <time>2026-04-23T12:12:07.315Z</time>
      </trkpt>
      <trkpt lat="43.190221" lon="12.581362">
        <ele>360.562339</ele>
        <time>2026-04-23T12:12:27.291Z</time>
      </trkpt>
      <trkpt lat="43.190440" lon="12.580607">
        <ele>358.761380</ele>
        <time>2026-04-23T12:13:29.719Z</time>
      </trkpt>
      <trkpt lat="43.190448" lon="12.580279">
        <ele>358.033994</ele>
        <time>2026-04-23T12:13:54.727Z</time>
      </trkpt>
      <trkpt lat="43.190377" lon="12.579899">
        <ele>357.164544</ele>
        <time>2026-04-23T12:14:23.586Z</time>
      </trkpt>
      <trkpt lat="43.190275" lon="12.579760">
        <ele>356.727437</ele>
        <time>2026-04-23T12:14:38.389Z</time>
      </trkpt>
      <trkpt lat="43.190143" lon="12.579818">
        <ele>356.306071</ele>
        <time>2026-04-23T12:14:52.978Z</time>
      </trkpt>
      <trkpt lat="43.190073" lon="12.580021">
        <ele>355.808354</ele>
        <time>2026-04-23T12:15:10.555Z</time>
      </trkpt>
      <trkpt lat="43.190030" lon="12.580681">
        <ele>354.051067</ele>
        <time>2026-04-23T12:16:04.188Z</time>
      </trkpt>
      <trkpt lat="43.189964" lon="12.580868">
        <ele>353.471365</ele>
        <time>2026-04-23T12:16:21.456Z</time>
      </trkpt>
      <trkpt lat="43.189830" lon="12.580712">
        <ele>352.798711</ele>
        <time>2026-04-23T12:16:41.781Z</time>
      </trkpt>
      <trkpt lat="43.189726" lon="12.580663">
        <ele>352.377868</ele>
        <time>2026-04-23T12:16:54.487Z</time>
      </trkpt>
      <trkpt lat="43.188693" lon="12.580567">
        <ele>348.533674</ele>
        <time>2026-04-23T12:18:48.834Z</time>
      </trkpt>
      <trkpt lat="43.188582" lon="12.580480">
        <ele>348.416451</ele>
        <time>2026-04-23T12:19:01.906Z</time>
      </trkpt>
      <trkpt lat="43.188503" lon="12.580336">
        <ele>348.295976</ele>
        <time>2026-04-23T12:19:15.376Z</time>
      </trkpt>
      <trkpt lat="43.188440" lon="12.580190">
        <ele>348.182559</ele>
        <time>2026-04-23T12:19:27.870Z</time>
      </trkpt>
      <trkpt lat="43.188437" lon="12.580018">
        <ele>348.067541</ele>
        <time>2026-04-23T12:19:40.501Z</time>
      </trkpt>
      <trkpt lat="43.188560" lon="12.579439">
        <ele>347.664371</ele>
        <time>2026-04-23T12:20:24.866Z</time>
      </trkpt>
      <trkpt lat="43.188575" lon="12.579047">
        <ele>347.401950</ele>
        <time>2026-04-23T12:20:54.423Z</time>
      </trkpt>
      <trkpt lat="43.188532" lon="12.578880">
        <ele>347.283550</ele>
        <time>2026-04-23T12:21:07.950Z</time>
      </trkpt>
      <trkpt lat="43.188398" lon="12.578663">
        <ele>347.093442</ele>
        <time>2026-04-23T12:21:29.698Z</time>
      </trkpt>
      <trkpt lat="43.187834" lon="12.578283">
        <ele>346.728599</ele>
        <time>2026-04-23T12:22:34.640Z</time>
      </trkpt>
      <trkpt lat="43.187672" lon="12.578018">
        <ele>346.618198</ele>
        <time>2026-04-23T12:23:00.237Z</time>
      </trkpt>
      <trkpt lat="43.187288" lon="12.575548">
        <ele>345.795209</ele>
        <time>2026-04-23T12:26:07.237Z</time>
      </trkpt>
      <trkpt lat="43.187214" lon="12.575150">
        <ele>345.657275</ele>
        <time>2026-04-23T12:26:38.554Z</time>
      </trkpt>
      <trkpt lat="43.187130" lon="12.574886">
        <ele>345.560544</ele>
        <time>2026-04-23T12:27:00.671Z</time>
      </trkpt>
      <trkpt lat="43.186389" lon="12.573533">
        <ele>346.128296</ele>
        <time>2026-04-23T12:29:07.761Z</time>
      </trkpt>
      <trkpt lat="43.186238" lon="12.573503">
        <ele>346.312664</ele>
        <time>2026-04-23T12:29:23.971Z</time>
      </trkpt>
      <trkpt lat="43.186149" lon="12.573533">
        <ele>346.423410</ele>
        <time>2026-04-23T12:29:33.938Z</time>
      </trkpt>
      <trkpt lat="43.185443" lon="12.573942">
        <ele>347.349507</ele>
        <time>2026-04-23T12:31:01.813Z</time>
      </trkpt>
      <trkpt lat="43.185085" lon="12.574125">
        <ele>347.764948</ele>
        <time>2026-04-23T12:31:47.509Z</time>
      </trkpt>
      <trkpt lat="43.184971" lon="12.574245">
        <ele>347.914419</ele>
        <time>2026-04-23T12:32:04.356Z</time>
      </trkpt>
      <trkpt lat="43.184860" lon="12.574414">
        <ele>348.086918</ele>
        <time>2026-04-23T12:32:23.262Z</time>
      </trkpt>
      <trkpt lat="43.184807" lon="12.574570">
        <ele>348.217439</ele>
        <time>2026-04-23T12:32:37.112Z</time>
      </trkpt>
      <trkpt lat="43.184773" lon="12.574751">
        <ele>348.359190</ele>
        <time>2026-04-23T12:32:51.758Z</time>
      </trkpt>
      <trkpt lat="43.184789" lon="12.575055">
        <ele>348.590341</ele>
        <time>2026-04-23T12:33:14.748Z</time>
      </trkpt>
      <trkpt lat="43.184942" lon="12.576487">
        <ele>349.361132</ele>
        <time>2026-04-23T12:35:04.236Z</time>
      </trkpt>
      <trkpt lat="43.184919" lon="12.576618">
        <ele>349.364503</ele>
        <time>2026-04-23T12:35:14.639Z</time>
      </trkpt>
      <trkpt lat="43.184837" lon="12.576810">
        <ele>349.370069</ele>
        <time>2026-04-23T12:35:31.647Z</time>
      </trkpt>
      <trkpt lat="43.184694" lon="12.576963">
        <ele>349.376291</ele>
        <time>2026-04-23T12:35:50.621Z</time>
      </trkpt>
      <trkpt lat="43.184592" lon="12.577008">
        <ele>349.379967</ele>
        <time>2026-04-23T12:36:01.690Z</time>
      </trkpt>
      <trkpt lat="43.184516" lon="12.577012">
        <ele>349.382577</ele>
        <time>2026-04-23T12:36:09.633Z</time>
      </trkpt>
      <trkpt lat="43.183998" lon="12.576873">
        <ele>349.400685</ele>
        <time>2026-04-23T12:37:02.820Z</time>
      </trkpt>
      <trkpt lat="43.183851" lon="12.576881">
        <ele>349.405733</ele>
        <time>2026-04-23T12:37:18.096Z</time>
      </trkpt>
      <trkpt lat="43.183717" lon="12.576948">
        <ele>349.410626</ele>
        <time>2026-04-23T12:37:33.262Z</time>
      </trkpt>
      <trkpt lat="43.183647" lon="12.577030">
        <ele>349.580111</ele>
        <time>2026-04-23T12:37:42.957Z</time>
      </trkpt>
      <trkpt lat="43.183267" lon="12.578073">
        <ele>351.927982</ele>
        <time>2026-04-23T12:39:15.193Z</time>
      </trkpt>
      <trkpt lat="43.183220" lon="12.578281">
        <ele>352.366483</ele>
        <time>2026-04-23T12:39:32.076Z</time>
      </trkpt>
      <trkpt lat="43.183242" lon="12.578432">
        <ele>352.676563</ele>
        <time>2026-04-23T12:39:44.169Z</time>
      </trkpt>
      <trkpt lat="43.183346" lon="12.578640">
        <ele>353.184427</ele>
        <time>2026-04-23T12:40:04.261Z</time>
      </trkpt>
      <trkpt lat="43.183470" lon="12.578725">
        <ele>353.567266</ele>
        <time>2026-04-23T12:40:19.451Z</time>
      </trkpt>
      <trkpt lat="43.184306" lon="12.579107">
        <ele>357.505849</ele>
        <time>2026-04-23T12:42:01.864Z</time>
      </trkpt>
      <trkpt lat="43.184441" lon="12.579196">
        <ele>358.303380</ele>
        <time>2026-04-23T12:42:20.469Z</time>
      </trkpt>
      <trkpt lat="43.184610" lon="12.579463">
        <ele>359.676036</ele>
        <time>2026-04-23T12:42:52.707Z</time>
      </trkpt>
      <trkpt lat="43.184626" lon="12.579691">
        <ele>360.565292</ele>
        <time>2026-04-23T12:43:13.608Z</time>
      </trkpt>
      <trkpt lat="43.184467" lon="12.580641">
        <ele>364.252895</ele>
        <time>2026-04-23T12:44:41.800Z</time>
      </trkpt>
      <trkpt lat="43.184479" lon="12.580813">
        <ele>364.759294</ele>
        <time>2026-04-23T12:44:57.286Z</time>
      </trkpt>
      <trkpt lat="43.184563" lon="12.581006">
        <ele>365.418041</ele>
        <time>2026-04-23T12:45:17.215Z</time>
      </trkpt>
      <trkpt lat="43.184914" lon="12.581377">
        <ele>367.199245</ele>
        <time>2026-04-23T12:46:10.117Z</time>
      </trkpt>
      <trkpt lat="43.185011" lon="12.581587">
        <ele>367.927808</ele>
        <time>2026-04-23T12:46:31.057Z</time>
      </trkpt>
      <trkpt lat="43.185036" lon="12.581739">
        <ele>368.384477</ele>
        <time>2026-04-23T12:46:43.941Z</time>
      </trkpt>
      <trkpt lat="43.185048" lon="12.582134">
        <ele>369.543134</ele>
        <time>2026-04-23T12:47:15.714Z</time>
      </trkpt>
      <trkpt lat="43.185274" lon="12.582731">
        <ele>371.158829</ele>
        <time>2026-04-23T12:48:10.287Z</time>
      </trkpt>
      <trkpt lat="43.185301" lon="12.582983">
        <ele>371.099121</ele>
        <time>2026-04-23T12:48:30.937Z</time>
      </trkpt>
      <trkpt lat="43.185295" lon="12.583226">
        <ele>371.042125</ele>
        <time>2026-04-23T12:48:49.766Z</time>
      </trkpt>
      <trkpt lat="43.185249" lon="12.583418">
        <ele>370.994749</ele>
        <time>2026-04-23T12:49:04.995Z</time>
      </trkpt>
      <trkpt lat="43.185062" lon="12.583778">
        <ele>370.891134</ele>
        <time>2026-04-23T12:49:37.428Z</time>
      </trkpt>
      <trkpt lat="43.185006" lon="12.583932">
        <ele>370.850793</ele>
        <time>2026-04-23T12:49:50.413Z</time>
      </trkpt>
      <trkpt lat="43.184997" lon="12.584205">
        <ele>370.786731</ele>
        <time>2026-04-23T12:50:11.259Z</time>
      </trkpt>
      <trkpt lat="43.185059" lon="12.584463">
        <ele>370.723051</ele>
        <time>2026-04-23T12:50:32.520Z</time>
      </trkpt>
      <trkpt lat="43.185119" lon="12.585058">
        <ele>370.519969</ele>
        <time>2026-04-23T12:51:20.141Z</time>
      </trkpt>
      <trkpt lat="43.185142" lon="12.585852">
        <ele>369.863500</ele>
        <time>2026-04-23T12:52:24.058Z</time>
      </trkpt>
      <trkpt lat="43.185111" lon="12.586189">
        <ele>369.582885</ele>
        <time>2026-04-23T12:52:50.651Z</time>
      </trkpt>
      <trkpt lat="43.185013" lon="12.586346">
        <ele>369.412146</ele>
        <time>2026-04-23T12:53:06.363Z</time>
      </trkpt>
      <trkpt lat="43.184284" lon="12.587060">
        <ele>368.797764</ele>
        <time>2026-04-23T12:54:37.433Z</time>
      </trkpt>
      <trkpt lat="43.183755" lon="12.587425">
        <ele>369.690850</ele>
        <time>2026-04-23T12:55:42.835Z</time>
      </trkpt>
      <trkpt lat="43.182863" lon="12.587949">
        <ele>371.154332</ele>
        <time>2026-04-23T12:57:33.592Z</time>
      </trkpt>
      <trkpt lat="43.182405" lon="12.588253">
        <ele>370.684263</ele>
        <time>2026-04-23T12:58:28.219Z</time>
      </trkpt>
      <trkpt lat="43.182335" lon="12.588362">
        <ele>370.535193</ele>
        <time>2026-04-23T12:58:38.989Z</time>
      </trkpt>
      <trkpt lat="43.182272" lon="12.588641">
        <ele>370.235435</ele>
        <time>2026-04-23T12:59:00.460Z</time>
      </trkpt>
      <trkpt lat="43.182277" lon="12.589628">
        <ele>369.222432</ele>
        <time>2026-04-23T13:00:17.021Z</time>
      </trkpt>
      <trkpt lat="43.182340" lon="12.589759">
        <ele>369.061376</ele>
        <time>2026-04-23T13:00:29.761Z</time>
      </trkpt>
      <trkpt lat="43.182447" lon="12.589878">
        <ele>368.867475</ele>
        <time>2026-04-23T13:00:45.127Z</time>
      </trkpt>
      <trkpt lat="43.183317" lon="12.589842">
        <ele>366.076708</ele>
        <time>2026-04-23T13:02:22.471Z</time>
      </trkpt>
      <trkpt lat="43.183459" lon="12.589896">
        <ele>365.576128</ele>
        <time>2026-04-23T13:02:38.771Z</time>
      </trkpt>
      <trkpt lat="43.183565" lon="12.589986">
        <ele>365.152620</ele>
        <time>2026-04-23T13:02:52.306Z</time>
      </trkpt>
      <trkpt lat="43.184989" lon="12.592151">
        <ele>357.740414</ele>
        <time>2026-04-23T13:06:35.276Z</time>
      </trkpt>
      <trkpt lat="43.185159" lon="12.592599">
        <ele>356.438961</ele>
        <time>2026-04-23T13:07:14.646Z</time>
      </trkpt>
      <trkpt lat="43.185104" lon="12.593110">
        <ele>354.086045</ele>
        <time>2026-04-23T13:07:55.228Z</time>
      </trkpt>
      <trkpt lat="43.184944" lon="12.593495">
        <ele>351.951299</ele>
        <time>2026-04-23T13:08:30.388Z</time>
      </trkpt>
      <trkpt lat="43.184510" lon="12.594871">
        <ele>344.729116</ele>
        <time>2026-04-23T13:10:34.964Z</time>
      </trkpt>
      <trkpt lat="43.184462" lon="12.595130">
        <ele>342.776665</ele>
        <time>2026-04-23T13:10:58.408Z</time>
      </trkpt>
      <trkpt lat="43.184493" lon="12.596601">
        <ele>330.767426</ele>
        <time>2026-04-23T13:13:11.995Z</time>
      </trkpt>
      <trkpt lat="43.184552" lon="12.597838">
        <ele>320.533524</ele>
        <time>2026-04-23T13:15:05.382Z</time>
      </trkpt>
      <trkpt lat="43.184516" lon="12.598003">
        <ele>319.082330</ele>
        <time>2026-04-23T13:15:20.965Z</time>
      </trkpt>
      <trkpt lat="43.183825" lon="12.599077">
        <ele>307.013526</ele>
        <time>2026-04-23T13:17:29.503Z</time>
      </trkpt>
      <trkpt lat="43.183565" lon="12.599834">
        <ele>300.509716</ele>
        <time>2026-04-23T13:18:43.815Z</time>
      </trkpt>
      <trkpt lat="43.181964" lon="12.602217">
        <ele>278.963007</ele>
        <time>2026-04-23T13:23:25.713Z</time>
      </trkpt>
      <trkpt lat="43.181701" lon="12.602840">
        <ele>274.755513</ele>
        <time>2026-04-23T13:24:26.393Z</time>
      </trkpt>
      <trkpt lat="43.181454" lon="12.603424">
        <ele>271.215648</ele>
        <time>2026-04-23T13:25:21.576Z</time>
      </trkpt>
      <trkpt lat="43.181432" lon="12.603595">
        <ele>270.788575</ele>
        <time>2026-04-23T13:25:35.429Z</time>
      </trkpt>
      <trkpt lat="43.181270" lon="12.604024">
        <ele>269.600349</ele>
        <time>2026-04-23T13:26:13.800Z</time>
      </trkpt>
      <trkpt lat="43.181188" lon="12.603955">
        <ele>269.275852</ele>
        <time>2026-04-23T13:26:24.202Z</time>
      </trkpt>
      <trkpt lat="43.181065" lon="12.603938">
        <ele>268.858879</ele>
        <time>2026-04-23T13:26:37.414Z</time>
      </trkpt>
      <trkpt lat="43.180926" lon="12.603929">
        <ele>268.389517</ele>
        <time>2026-04-23T13:26:52.232Z</time>
      </trkpt>
      <trkpt lat="43.180804" lon="12.603937">
        <ele>267.977548</ele>
        <time>2026-04-23T13:27:05.132Z</time>
      </trkpt>
      <trkpt lat="43.180447" lon="12.603953">
        <ele>266.772764</ele>
        <time>2026-04-23T13:27:42.237Z</time>
      </trkpt>
      <trkpt lat="43.180235" lon="12.603958">
        <ele>266.057594</ele>
        <time>2026-04-23T13:28:04.057Z</time>
      </trkpt>
      <trkpt lat="43.179977" lon="12.603924">
        <ele>265.391803</ele>
        <time>2026-04-23T13:28:30.608Z</time>
      </trkpt>
      <trkpt lat="43.177789" lon="12.601720">
        <ele>264.017652</ele>
        <time>2026-04-23T13:33:04.150Z</time>
      </trkpt>
      <trkpt lat="43.177588" lon="12.601508">
        <ele>263.963617</ele>
        <time>2026-04-23T13:33:29.690Z</time>
      </trkpt>
      <trkpt lat="43.177615" lon="12.601384">
        <ele>263.943508</ele>
        <time>2026-04-23T13:33:39.206Z</time>
      </trkpt>
      <trkpt lat="43.177683" lon="12.601224">
        <ele>263.914730</ele>
        <time>2026-04-23T13:33:52.806Z</time>
      </trkpt>
      <trkpt lat="43.177706" lon="12.601123">
        <ele>263.898288</ele>
        <time>2026-04-23T13:34:00.636Z</time>
      </trkpt>
      <trkpt lat="43.177697" lon="12.601045">
        <ele>263.886017</ele>
        <time>2026-04-23T13:34:06.439Z</time>
      </trkpt>
      <trkpt lat="43.177599" lon="12.600953">
        <ele>263.860709</ele>
        <time>2026-04-23T13:34:18.395Z</time>
      </trkpt>
      <trkpt lat="43.177313" lon="12.600885">
        <ele>263.978550</ele>
        <time>2026-04-23T13:34:47.705Z</time>
      </trkpt>
      <trkpt lat="43.177156" lon="12.600798">
        <ele>264.079773</ele>
        <time>2026-04-23T13:35:04.863Z</time>
      </trkpt>
      <trkpt lat="43.177136" lon="12.600658">
        <ele>264.141961</ele>
        <time>2026-04-23T13:35:15.317Z</time>
      </trkpt>
      <trkpt lat="43.177002" lon="12.600370">
        <ele>264.290882</ele>
        <time>2026-04-23T13:35:40.359Z</time>
      </trkpt>
      <trkpt lat="43.176835" lon="12.600143">
        <ele>264.431442</ele>
        <time>2026-04-23T13:36:03.856Z</time>
      </trkpt>
      <trkpt lat="43.176193" lon="12.599465">
        <ele>264.915826</ele>
        <time>2026-04-23T13:37:25.428Z</time>
      </trkpt>
      <trkpt lat="43.176038" lon="12.599360">
        <ele>265.526372</ele>
        <time>2026-04-23T13:37:42.855Z</time>
      </trkpt>
      <trkpt lat="43.175506" lon="12.599156">
        <ele>267.566957</ele>
        <time>2026-04-23T13:38:41.295Z</time>
      </trkpt>
      <trkpt lat="43.175255" lon="12.598970">
        <ele>268.620872</ele>
        <time>2026-04-23T13:39:13.792Z</time>
      </trkpt>
      <trkpt lat="43.175075" lon="12.598733">
        <ele>269.542681</ele>
        <time>2026-04-23T13:39:43.394Z</time>
      </trkpt>
      <trkpt lat="43.174943" lon="12.598437">
        <ele>270.477342</ele>
        <time>2026-04-23T13:40:14.628Z</time>
      </trkpt>
      <trkpt lat="43.174785" lon="12.598337">
        <ele>271.120160</ele>
        <time>2026-04-23T13:40:36.410Z</time>
      </trkpt>
      <trkpt lat="43.174591" lon="12.597890">
        <ele>272.718255</ele>
        <time>2026-04-23T13:41:24.417Z</time>
      </trkpt>
      <trkpt lat="43.174473" lon="12.597686">
        <ele>273.564086</ele>
        <time>2026-04-23T13:41:48.511Z</time>
      </trkpt>
      <trkpt lat="43.174137" lon="12.597536">
        <ele>275.138087</ele>
        <time>2026-04-23T13:42:32.897Z</time>
      </trkpt>
      <trkpt lat="43.173377" lon="12.597650">
        <ele>278.543623</ele>
        <time>2026-04-23T13:44:03.409Z</time>
      </trkpt>
      <trkpt lat="43.173088" lon="12.597661">
        <ele>279.545391</ele>
        <time>2026-04-23T13:44:35.013Z</time>
      </trkpt>
      <trkpt lat="43.172501" lon="12.597596">
        <ele>279.216585</ele>
        <time>2026-04-23T13:45:35.047Z</time>
      </trkpt>
      <trkpt lat="43.172219" lon="12.597500">
        <ele>279.054356</ele>
        <time>2026-04-23T13:46:04.711Z</time>
      </trkpt>
      <trkpt lat="43.171664" lon="12.597371">
        <ele>278.740062</ele>
        <time>2026-04-23T13:47:03.761Z</time>
      </trkpt>
      <trkpt lat="43.171554" lon="12.597382">
        <ele>278.678483</ele>
        <time>2026-04-23T13:47:15.491Z</time>
      </trkpt>
      <trkpt lat="43.171413" lon="12.597462">
        <ele>278.593285</ele>
        <time>2026-04-23T13:47:31.936Z</time>
      </trkpt>
      <trkpt lat="43.171241" lon="12.597452">
        <ele>278.154101</ele>
        <time>2026-04-23T13:47:50.728Z</time>
      </trkpt>
      <trkpt lat="43.170830" lon="12.597167">
        <ele>276.733884</ele>
        <time>2026-04-23T13:48:41.728Z</time>
      </trkpt>
      <trkpt lat="43.170576" lon="12.597071">
        <ele>275.921435</ele>
        <time>2026-04-23T13:49:11.084Z</time>
      </trkpt>
      <trkpt lat="43.169797" lon="12.597038">
        <ele>273.518157</ele>
        <time>2026-04-23T13:50:35.552Z</time>
      </trkpt>
      <trkpt lat="43.169664" lon="12.596978">
        <ele>273.086409</ele>
        <time>2026-04-23T13:50:50.285Z</time>
      </trkpt>
      <trkpt lat="43.169563" lon="12.596871">
        <ele>272.929134</ele>
        <time>2026-04-23T13:51:03.587Z</time>
      </trkpt>
      <trkpt lat="43.169418" lon="12.596599">
        <ele>272.707709</ele>
        <time>2026-04-23T13:51:28.981Z</time>
      </trkpt>
      <trkpt lat="43.168714" lon="12.595917">
        <ele>271.930949</ele>
        <time>2026-04-23T13:52:56.217Z</time>
      </trkpt>
      <trkpt lat="43.168615" lon="12.595787">
        <ele>271.807424</ele>
        <time>2026-04-23T13:53:10.521Z</time>
      </trkpt>
      <trkpt lat="43.168585" lon="12.595562">
        <ele>271.657097</ele>
        <time>2026-04-23T13:53:27.908Z</time>
      </trkpt>
      <trkpt lat="43.168498" lon="12.595443">
        <ele>271.546358</ele>
        <time>2026-04-23T13:53:40.745Z</time>
      </trkpt>
      <trkpt lat="43.168142" lon="12.595182">
        <ele>270.935830</ele>
        <time>2026-04-23T13:54:22.128Z</time>
      </trkpt>
      <trkpt lat="43.167885" lon="12.595208">
        <ele>270.447044</ele>
        <time>2026-04-23T13:54:47.974Z</time>
      </trkpt>
      <trkpt lat="43.167618" lon="12.595097">
        <ele>269.917848</ele>
        <time>2026-04-23T13:55:16.245Z</time>
      </trkpt>
      <trkpt lat="43.167352" lon="12.594936">
        <ele>269.366342</ele>
        <time>2026-04-23T13:55:46.328Z</time>
      </trkpt>
      <trkpt lat="43.166680" lon="12.594822">
        <ele>268.082017</ele>
        <time>2026-04-23T13:56:58.846Z</time>
      </trkpt>
      <trkpt lat="43.166429" lon="12.594871">
        <ele>267.182608</ele>
        <time>2026-04-23T13:57:26.669Z</time>
      </trkpt>
      <trkpt lat="43.166045" lon="12.595080">
        <ele>265.564909</ele>
        <time>2026-04-23T13:58:12.261Z</time>
      </trkpt>
      <trkpt lat="43.165416" lon="12.594993">
        <ele>263.089546</ele>
        <time>2026-04-23T13:59:22.044Z</time>
      </trkpt>
      <trkpt lat="43.165270" lon="12.594887">
        <ele>262.442673</ele>
        <time>2026-04-23T13:59:40.292Z</time>
      </trkpt>
      <trkpt lat="43.165099" lon="12.594564">
        <ele>261.302832</ele>
        <time>2026-04-23T14:00:12.137Z</time>
      </trkpt>
      <trkpt lat="43.165011" lon="12.594463">
        <ele>260.887492</ele>
        <time>2026-04-23T14:00:24.501Z</time>
      </trkpt>
      <trkpt lat="43.164755" lon="12.594806">
        <ele>259.971205</ele>
        <time>2026-04-23T14:01:02.927Z</time>
      </trkpt>
      <trkpt lat="43.164528" lon="12.594816">
        <ele>259.389821</ele>
        <time>2026-04-23T14:01:26.935Z</time>
      </trkpt>
      <trkpt lat="43.163471" lon="12.593975">
        <ele>256.305713</ele>
        <time>2026-04-23T14:03:34.273Z</time>
      </trkpt>
      <trkpt lat="43.162923" lon="12.593439">
        <ele>255.469121</ele>
        <time>2026-04-23T14:04:42.808Z</time>
      </trkpt>
      <trkpt lat="43.162665" lon="12.593074">
        <ele>255.008381</ele>
        <time>2026-04-23T14:05:20.724Z</time>
      </trkpt>
      <trkpt lat="43.162320" lon="12.592827">
        <ele>254.524683</ele>
        <time>2026-04-23T14:06:00.458Z</time>
      </trkpt>
      <trkpt lat="43.162023" lon="12.593557">
        <ele>254.070957</ele>
        <time>2026-04-23T14:07:03.082Z</time>
      </trkpt>
      <trkpt lat="43.161279" lon="12.595113">
        <ele>253.869469</ele>
        <time>2026-04-23T14:09:21.774Z</time>
      </trkpt>
      <trkpt lat="43.160966" lon="12.595874">
        <ele>255.516179</ele>
        <time>2026-04-23T14:10:27.937Z</time>
      </trkpt>
      <trkpt lat="43.160959" lon="12.595943">
        <ele>255.695501</ele>
        <time>2026-04-23T14:10:33.331Z</time>
      </trkpt>
      <trkpt lat="43.160900" lon="12.596556">
        <ele>257.287105</ele>
        <time>2026-04-23T14:11:23.582Z</time>
      </trkpt>
      <trkpt lat="43.160737" lon="12.597432">
        <ele>259.614236</ele>
        <time>2026-04-23T14:12:41.956Z</time>
      </trkpt>
      <trkpt lat="43.160444" lon="12.598284">
        <ele>263.229220</ele>
        <time>2026-04-23T14:14:06.933Z</time>
      </trkpt>
      <trkpt lat="43.160313" lon="12.598560">
        <ele>264.623247</ele>
        <time>2026-04-23T14:14:36.245Z</time>
      </trkpt>
      <trkpt lat="43.159993" lon="12.599004">
        <ele>267.265669</ele>
        <time>2026-04-23T14:15:31.789Z</time>
      </trkpt>
      <trkpt lat="43.159712" lon="12.599211">
        <ele>269.117063</ele>
        <time>2026-04-23T14:16:12.637Z</time>
      </trkpt>
      <trkpt lat="43.159607" lon="12.599369">
        <ele>270.021933</ele>
        <time>2026-04-23T14:16:33.196Z</time>
      </trkpt>
      <trkpt lat="43.159407" lon="12.599611">
        <ele>270.631275</ele>
        <time>2026-04-23T14:17:08.290Z</time>
      </trkpt>
      <trkpt lat="43.159223" lon="12.599949">
        <ele>270.631275</ele>
        <time>2026-04-23T14:17:47.982Z</time>
      </trkpt>
      <trkpt lat="43.158975" lon="12.600313">
        <ele>270.631275</ele>
        <time>2026-04-23T14:18:34.042Z</time>
      </trkpt>
      <trkpt lat="43.158903" lon="12.600620">
        <ele>270.631275</ele>
        <time>2026-04-23T14:19:03.542Z</time>
      </trkpt>
      <trkpt lat="43.158879" lon="12.600797">
        <ele>270.631275</ele>
        <time>2026-04-23T14:19:20.017Z</time>
      </trkpt>
    </trkseg>
  </trk>
</gpx>